OMJ YMOR-YARM

Flight info

Callsign OMJ
Flight time N/A
Altitude 7000
Route MOR DCT ARM
Aircraft C208/L-SDFGR/C

Departure

Time 2026-04-20 06:04
Airport Moree Airport (YMOR)

Arrival

Time N/A
Airport Armidale Airport (YARM)
Time Latitude Longitude Altitude Speed Heading
2026-04-20 05:59 -29.49651 149.84923 694 ft 0 kts 116°
2026-04-20 06:02 -29.49657 149.84921 697 ft 3 kts 263°
2026-04-20 06:02 -29.49605 149.84901 693 ft 14 kts 336°
2026-04-20 06:02 -29.49550 149.84776 695 ft 19 kts 285°
2026-04-20 06:02 -29.49578 149.84678 699 ft 5 kts 197°
2026-04-20 06:03 -29.49736 149.84622 699 ft 47 kts 197°
2026-04-20 06:03 -29.50166 149.84471 735 ft 77 kts 195°
2026-04-20 06:03 -29.50689 149.84302 902 ft 83 kts 190°
2026-04-20 06:03 -29.51261 149.84385 1086 ft 92 kts 145°
2026-04-20 06:04 -29.51755 149.84842 1315 ft 85 kts 144°
2026-04-20 06:04 -29.52161 149.85294 1548 ft 83 kts 140°
2026-04-20 06:04 -29.52619 149.85744 1785 ft 93 kts 130°
2026-04-20 06:04 -29.52938 149.86424 2033 ft 100 kts 126°
2026-04-20 06:05 -29.53332 149.87105 2297 ft 104 kts 127°
2026-04-20 06:05 -29.53730 149.87811 2562 ft 107 kts 128°
2026-04-20 06:05 -29.54140 149.88523 2813 ft 106 kts 129°
2026-04-20 06:05 -29.54554 149.89216 3073 ft 105 kts 127°
2026-04-20 06:06 -29.54952 149.89922 3322 ft 105 kts 129°
2026-04-20 06:06 -29.55352 149.90617 3553 ft 103 kts 127°
2026-04-20 06:06 -29.55746 149.91299 3760 ft 105 kts 128°
2026-04-20 06:06 -29.56165 149.92013 3932 ft 110 kts 129°
2026-04-20 06:07 -29.56599 149.92759 4117 ft 114 kts 129°
2026-04-20 06:07 -29.57043 149.93527 4305 ft 117 kts 127°
2026-04-20 06:07 -29.57488 149.94283 4471 ft 109 kts 128°
2026-04-20 06:07 -29.57885 149.94965 4601 ft 98 kts 127°
2026-04-20 06:08 -29.58244 149.95587 4734 ft 89 kts 127°
2026-04-20 06:08 -29.58571 149.96155 4855 ft 82 kts 128°
2026-04-20 06:08 -29.58877 149.96680 4938 ft 77 kts 129°
2026-04-20 06:08 -29.59175 149.97203 5014 ft 81 kts 129°
2026-04-20 06:09 -29.59502 149.97765 5130 ft 90 kts 128°
2026-04-20 06:09 -29.59871 149.98391 5273 ft 102 kts 127°
2026-04-20 06:09 -29.60293 149.99110 5408 ft 113 kts 127°
2026-04-20 06:09 -29.60745 149.99892 5525 ft 124 kts 127°
2026-04-20 06:10 -29.61252 150.00759 5526 ft 137 kts 127°
2026-04-20 06:10 -29.61796 150.01695 5519 ft 144 kts 127°
2026-04-20 06:10 -29.62358 150.02668 5514 ft 148 kts 126°
2026-04-20 06:10 -29.62931 150.03655 5513 ft 148 kts 126°
2026-04-20 06:11 -29.63502 150.04643 5515 ft 148 kts 126°
2026-04-20 06:11 -29.64076 150.05632 5515 ft 149 kts 127°
2026-04-20 06:11 -29.64649 150.06621 5511 ft 149 kts 127°
2026-04-20 06:11 -29.65227 150.07616 5508 ft 150 kts 126°
2026-04-20 06:12 -29.65796 150.08600 5509 ft 149 kts 126°
2026-04-20 06:12 -29.66372 150.09596 5509 ft 149 kts 127°
2026-04-20 06:12 -29.66946 150.10588 5513 ft 149 kts 126°
2026-04-20 06:12 -29.67522 150.11584 5515 ft 150 kts 127°
2026-04-20 06:13 -29.68105 150.12586 5513 ft 152 kts 126°
2026-04-20 06:13 -29.68689 150.13593 5512 ft 150 kts 126°
2026-04-20 06:13 -29.69266 150.14594 5506 ft 150 kts 126°
2026-04-20 06:13 -29.69842 150.15592 5509 ft 150 kts 126°
2026-04-20 06:14 -29.70420 150.16593 5507 ft 151 kts 126°
2026-04-20 06:14 -29.71002 150.17597 5506 ft 151 kts 126°
2026-04-20 06:14 -29.71579 150.18595 5507 ft 149 kts 125°
2026-04-20 06:14 -29.72150 150.19585 5507 ft 148 kts 126°
2026-04-20 06:15 -29.72719 150.20569 5510 ft 147 kts 127°
2026-04-20 06:15 -29.73283 150.21546 5508 ft 146 kts 128°
2026-04-20 06:15 -29.73842 150.22518 5508 ft 146 kts 126°
2026-04-20 06:15 -29.74402 150.23486 5507 ft 148 kts 126°
2026-04-20 06:16 -29.74977 150.24481 5506 ft 150 kts 126°
2026-04-20 06:16 -29.75553 150.25478 5506 ft 150 kts 126°
2026-04-20 06:16 -29.76130 150.26484 5514 ft 152 kts 126°
2026-04-20 06:16 -29.76712 150.27491 5512 ft 151 kts 127°
2026-04-20 06:17 -29.77289 150.28485 5515 ft 148 kts 127°
2026-04-20 06:17 -29.77848 150.29462 5516 ft 145 kts 127°
2026-04-20 06:17 -29.78401 150.30423 5514 ft 144 kts 127°
2026-04-20 06:17 -29.78956 150.31385 5509 ft 145 kts 127°
2026-04-20 06:18 -29.79515 150.32355 5502 ft 146 kts 127°
2026-04-20 06:18 -29.80076 150.33331 5502 ft 146 kts 127°
2026-04-20 06:18 -29.80638 150.34304 5508 ft 147 kts 126°
2026-04-20 06:18 -29.81202 150.35285 5508 ft 147 kts 126°
2026-04-20 06:19 -29.81765 150.36264 5511 ft 146 kts 126°
2026-04-20 06:19 -29.82325 150.37238 5510 ft 146 kts 126°
2026-04-20 06:19 -29.82884 150.38209 5511 ft 145 kts 128°
2026-04-20 06:19 -29.83442 150.39178 5507 ft 146 kts 126°
2026-04-20 06:20 -29.84001 150.40154 5505 ft 146 kts 126°
2026-04-20 06:20 -29.84561 150.41127 5499 ft 139 kts 127°
2026-04-20 06:20 -29.84887 150.41686 5493 ft 115 kts 129°
2026-04-20 06:20 -29.85404 150.42577 5326 ft 94 kts 129°
2026-04-20 06:21 -29.85762 150.43191 5083 ft 92 kts 127°
2026-04-20 06:21 -29.86098 150.43774 4919 ft 82 kts 128°
2026-04-20 06:21 -29.86397 150.44297 4697 ft 77 kts 128°
2026-04-20 06:21 -29.86705 150.44834 4398 ft 83 kts 127°
2026-04-20 06:22 -29.87012 150.45367 4165 ft 79 kts 127°
2026-04-20 06:22 -29.87210 150.45711 4028 ft 76 kts 128°
2026-04-20 06:22 -29.87505 150.46222 3758 ft 80 kts 129°
2026-04-20 06:22 -29.87805 150.46746 3561 ft 75 kts 130°
2026-04-20 06:23 -29.88106 150.47254 3261 ft 79 kts 132°
2026-04-20 06:23 -29.88477 150.47771 2958 ft 76 kts 141°
2026-04-20 06:23 -29.88826 150.48307 2526 ft 100 kts 107°
2026-04-20 06:23 -29.88584 150.49148 1992 ft 130 kts 51°
2026-04-20 06:24 -29.87763 150.49580 1430 ft 125 kts
2026-04-20 06:24 -29.87052 150.49716 1238 ft 87 kts
2026-04-20 06:24 -29.86964 150.49719 1205 ft 0 kts